createdAt,value
2023-04-29T00:00:49.916Z,12.83
2023-04-29T00:03:20.157Z,13.01
2023-04-29T00:05:49.874Z,12.74
2023-04-29T00:08:19.296Z,12.68
2023-04-29T00:10:51.232Z,12.45
2023-04-29T00:13:21.436Z,12.87
2023-04-29T00:15:50.958Z,12.76
2023-04-29T00:18:20.416Z,12.67
2023-04-29T00:20:49.745Z,12.73
2023-04-29T00:23:19.047Z,12.53
2023-04-29T00:25:53.490Z,12.53
2023-04-29T00:28:23.048Z,12.69
2023-04-29T00:30:53.161Z,12.47
2023-04-29T00:33:22.839Z,12.39
2023-04-29T00:35:52.310Z,12.47
2023-04-29T00:38:22.489Z,12.51
2023-04-29T00:40:54.914Z,12.71
2023-04-29T00:43:24.452Z,12.38
2023-04-29T00:45:54.440Z,12.41
2023-04-29T00:48:23.864Z,12.24
2023-04-29T00:50:53.520Z,12.48
2023-04-29T00:53:23.665Z,12.13
2023-04-29T00:55:56.045Z,12.32
2023-04-29T00:58:33.663Z,12.25
2023-04-29T01:01:03.941Z,12.27
2023-04-29T01:03:34.411Z,12.51
2023-04-29T01:06:11.975Z,12.41
2023-04-29T01:08:57.134Z,12.36
2023-04-29T01:11:38.286Z,12.22
2023-04-29T01:14:08.581Z,12.29
2023-04-29T01:16:43.358Z,12.15
2023-04-29T01:19:43.167Z,12.35
2023-04-29T01:22:12.958Z,12.05
2023-04-29T01:24:45.310Z,12.14
2023-04-29T01:27:26.470Z,11.90
2023-04-29T01:30:03.312Z,11.96
2023-04-29T01:32:50.210Z,12.29
2023-04-29T01:35:33.488Z,12.22
2023-04-29T01:38:12.137Z,12.02
2023-04-29T01:40:54.926Z,11.97
2023-04-29T01:43:27.605Z,12.23
2023-04-29T01:45:59.493Z,12.12
2023-04-29T01:48:29.841Z,12.04
2023-04-29T01:50:59.467Z,12.15
2023-04-29T01:53:29.145Z,12.14
2023-04-29T01:56:01.549Z,12.15
2023-04-29T01:58:31.232Z,12.18
2023-04-29T02:01:00.926Z,12.03
2023-04-29T02:03:31.084Z,12.14
2023-04-29T02:06:00.902Z,12.05
2023-04-29T02:08:30.732Z,12.17
2023-04-29T02:11:03.104Z,12.18
2023-04-29T02:13:32.811Z,12.09
2023-04-29T02:16:10.664Z,12.16
2023-04-29T02:18:40.898Z,12.06
2023-04-29T02:21:10.937Z,11.92
2023-04-29T02:23:40.885Z,12.06
2023-04-29T02:26:14.268Z,12.07
2023-04-29T02:28:44.586Z,12.10
2023-04-29T02:31:14.413Z,12.12
2023-04-29T02:33:44.483Z,12.15
2023-04-29T02:36:14.193Z,11.96
2023-04-29T02:38:43.849Z,12.15
2023-04-29T02:41:19.691Z,12.23
2023-04-29T02:43:49.634Z,12.12
2023-04-29T02:46:19.482Z,12.29
2023-04-29T02:48:49.276Z,12.15
2023-04-29T02:51:18.979Z,12.26
2023-04-29T02:53:50.335Z,12.24
2023-04-29T02:56:23.563Z,12.39
2023-04-29T02:58:53.288Z,12.30
2023-04-29T03:01:24.510Z,12.39
2023-04-29T03:03:55.027Z,12.49
2023-04-29T03:06:24.983Z,12.28
2023-04-29T03:08:55.512Z,12.38
2023-04-29T03:11:27.832Z,12.56
2023-04-29T03:13:57.610Z,12.28
2023-04-29T03:16:28.949Z,12.44
2023-04-29T03:18:58.701Z,12.30
2023-04-29T03:21:30.045Z,12.50
2023-04-29T03:23:59.772Z,12.48
2023-04-29T03:26:32.055Z,12.40
2023-04-29T03:29:01.877Z,12.46
2023-04-29T03:31:31.661Z,12.34
2023-04-29T03:34:04.306Z,12.64
2023-04-29T03:36:34.015Z,12.78
2023-04-29T03:39:04.843Z,12.41
2023-04-29T03:41:37.223Z,12.75
2023-04-29T03:44:07.675Z,12.68
2023-04-29T03:46:37.551Z,12.85
2023-04-29T03:49:07.669Z,12.55
2023-04-29T03:51:37.416Z,12.68
2023-04-29T03:54:07.744Z,12.58
2023-04-29T03:56:40.050Z,12.48
2023-04-29T03:59:09.895Z,12.71
2023-04-29T04:01:39.981Z,12.78
2023-04-29T04:04:09.930Z,12.78
2023-04-29T04:06:39.860Z,12.73
2023-04-29T04:09:09.554Z,12.53
2023-04-29T04:11:42.308Z,12.53
2023-04-29T04:14:12.026Z,12.71
2023-04-29T04:16:41.764Z,12.51
2023-04-29T04:19:11.589Z,12.47
2023-04-29T04:21:41.226Z,12.67
2023-04-29T04:24:11.232Z,12.53
2023-04-29T04:26:44.344Z,12.10
2023-04-29T04:29:14.370Z,12.27
2023-04-29T04:31:46.748Z,12.43
2023-04-29T04:34:16.810Z,12.62
2023-04-29T04:36:47.004Z,12.53
2023-04-29T04:39:16.682Z,12.33
2023-04-29T04:41:48.952Z,11.94
2023-04-29T04:44:18.685Z,11.89
2023-04-29T04:46:48.472Z,12.18
2023-04-29T04:49:18.312Z,12.12
2023-04-29T04:51:48.044Z,12.14
2023-04-29T04:54:17.810Z,12.23
2023-04-29T04:56:52.375Z,12.29
2023-04-29T04:59:22.152Z,12.11
2023-04-29T05:01:51.843Z,12.30
2023-04-29T05:04:21.643Z,12.14
2023-04-29T05:06:51.567Z,12.51
2023-04-29T05:09:21.198Z,12.38
2023-04-29T05:11:54.233Z,12.28
2023-04-29T05:14:23.913Z,12.17
2023-04-29T05:16:53.684Z,12.30
2023-04-29T05:19:23.339Z,11.97
2023-04-29T05:21:53.235Z,12.21
2023-04-29T05:24:24.106Z,12.20
2023-04-29T05:26:56.446Z,12.37
2023-04-29T05:29:27.392Z,12.40
2023-04-29T05:31:57.062Z,12.00
2023-04-29T05:34:26.819Z,12.06
2023-04-29T05:36:57.984Z,12.23
2023-04-29T05:39:27.677Z,12.10
2023-04-29T05:42:00.174Z,11.98
2023-04-29T05:44:31.935Z,11.68
2023-04-29T05:47:03.782Z,11.73
2023-04-29T05:49:33.505Z,12.11
2023-04-29T05:52:07.253Z,12.05
2023-04-29T05:54:37.458Z,11.84
2023-04-29T05:57:09.779Z,11.90
2023-04-29T05:59:39.436Z,11.74
2023-04-29T06:02:11.111Z,11.75
2023-04-29T06:04:41.849Z,11.49
2023-04-29T06:07:12.841Z,11.74
2023-04-29T06:09:43.222Z,11.75
2023-04-29T06:12:15.573Z,12.13
2023-04-29T06:14:45.171Z,12.02
2023-04-29T06:17:15.261Z,11.88
2023-04-29T06:19:44.913Z,12.05
2023-04-29T06:22:14.610Z,12.33
2023-04-29T06:24:44.291Z,12.18
2023-04-29T06:27:16.584Z,12.19
2023-04-29T06:29:46.422Z,12.40
2023-04-29T06:32:16.484Z,11.92
2023-04-29T06:34:46.508Z,11.97
2023-04-29T06:37:16.531Z,12.20
2023-04-29T06:39:46.221Z,12.09
2023-04-29T06:42:18.599Z,12.11
2023-04-29T06:44:48.411Z,12.23
2023-04-29T06:47:18.291Z,12.20
2023-04-29T06:49:48.045Z,12.31
2023-04-29T06:52:17.921Z,12.02
2023-04-29T06:54:47.809Z,12.34
2023-04-29T06:57:21.001Z,12.33
2023-04-29T06:59:51.083Z,12.51
2023-04-29T07:02:21.742Z,12.28
2023-04-29T07:04:52.924Z,12.33
2023-04-29T07:07:23.671Z,12.30
2023-04-29T07:09:54.841Z,12.39
2023-04-29T07:12:27.799Z,12.39
2023-04-29T07:14:58.134Z,12.35
2023-04-29T07:17:27.891Z,12.38
2023-04-29T07:19:57.683Z,12.31
2023-04-29T07:22:27.606Z,12.52
2023-04-29T07:24:57.855Z,12.34
2023-04-29T07:27:30.722Z,12.23
2023-04-29T07:30:05.084Z,12.40
2023-04-29T07:32:35.631Z,12.46
2023-04-29T07:35:05.503Z,12.61
2023-04-29T07:37:35.284Z,12.61
2023-04-29T07:40:05.103Z,12.78
2023-04-29T07:42:37.561Z,12.79
2023-04-29T07:45:08.641Z,12.90
2023-04-29T07:47:38.712Z,12.96
2023-04-29T07:50:09.652Z,13.29
2023-04-29T07:52:39.401Z,13.12
2023-04-29T07:55:10.095Z,13.18
2023-04-29T07:57:42.381Z,13.37
2023-04-29T08:00:13.364Z,13.24
2023-04-29T08:02:43.175Z,13.35
2023-04-29T08:05:13.397Z,13.55
2023-04-29T08:07:43.326Z,13.50
2023-04-29T08:10:13.366Z,13.61
2023-04-29T08:12:48.592Z,13.92
2023-04-29T08:15:18.849Z,13.88
2023-04-29T08:17:48.672Z,13.86
2023-04-29T08:20:18.416Z,14.03
2023-04-29T08:22:48.199Z,13.95
2023-04-29T08:25:17.983Z,14.01
2023-04-29T08:27:50.392Z,14.14
2023-04-29T08:30:20.361Z,14.56
2023-04-29T08:32:50.249Z,14.72
2023-04-29T08:35:19.988Z,14.50
2023-04-29T08:37:49.656Z,14.68
2023-04-29T08:40:19.611Z,14.68
2023-04-29T08:42:53.157Z,14.48
2023-04-29T08:45:23.455Z,14.66
2023-04-29T08:47:54.454Z,14.78
2023-04-29T08:50:24.168Z,14.86
2023-04-29T08:52:54.189Z,15.00
2023-04-29T08:55:24.699Z,15.15
2023-04-29T08:57:58.277Z,15.34
2023-04-29T09:00:28.256Z,15.44
2023-04-29T09:03:05.018Z,15.31
2023-04-29T09:05:37.346Z,15.24
2023-04-29T09:08:08.808Z,15.24
2023-04-29T09:10:40.410Z,15.10
2023-04-29T09:13:25.381Z,15.53
2023-04-29T09:15:55.602Z,15.74
2023-04-29T09:18:46.852Z,15.53
2023-04-29T09:21:22.402Z,15.53
2023-04-29T09:23:54.004Z,15.41
2023-04-29T09:26:24.904Z,15.50
2023-04-29T09:29:14.375Z,15.66
2023-04-29T09:31:44.824Z,15.56
2023-04-29T09:34:15.348Z,16.24
2023-04-29T09:36:48.037Z,15.66
2023-04-29T09:39:19.110Z,15.91
2023-04-29T09:42:03.778Z,15.84
2023-04-29T09:44:38.660Z,15.90
2023-04-29T09:47:09.576Z,16.07
2023-04-29T09:49:41.985Z,16.33
2023-04-29T09:52:13.841Z,16.11
2023-04-29T09:54:45.345Z,16.44
2023-04-29T09:57:16.111Z,16.37
2023-04-29T09:59:48.372Z,16.43
2023-04-29T10:02:20.847Z,16.08
2023-04-29T10:04:57.790Z,16.11
2023-04-29T10:07:31.069Z,16.49
2023-04-29T10:10:01.045Z,16.45
2023-04-29T10:12:30.743Z,16.80
2023-04-29T10:15:07.042Z,16.74
2023-04-29T10:17:46.654Z,16.30
2023-04-29T10:20:18.484Z,16.64
2023-04-29T10:22:49.762Z,16.68
2023-04-29T10:25:22.371Z,16.50
2023-04-29T10:27:53.755Z,16.83
2023-04-29T10:30:26.302Z,16.72
2023-04-29T10:32:57.294Z,16.84
2023-04-29T10:35:27.204Z,16.90
2023-04-29T10:37:58.947Z,17.10
2023-04-29T10:40:34.375Z,16.90
2023-04-29T10:43:04.826Z,16.40
2023-04-29T10:45:37.872Z,16.44
2023-04-29T10:48:22.070Z,16.51
2023-04-29T10:51:06.719Z,16.80
2023-04-29T10:53:36.901Z,16.86
2023-04-29T10:56:09.460Z,16.66
2023-04-29T10:58:45.052Z,17.06
2023-04-29T11:01:19.666Z,17.03
2023-04-29T11:03:55.316Z,16.99
2023-04-29T11:06:27.872Z,17.24
2023-04-29T11:09:05.841Z,17.07
2023-04-29T11:11:47.257Z,17.06
2023-04-29T11:14:18.238Z,17.04
2023-04-29T11:16:55.562Z,17.08
2023-04-29T11:19:27.319Z,17.38
2023-04-29T11:22:17.947Z,16.90
2023-04-29T11:24:56.049Z,17.03
2023-04-29T11:27:28.405Z,17.06
2023-04-29T11:29:59.460Z,17.20
2023-04-29T11:32:34.041Z,17.48
2023-04-29T11:35:14.625Z,17.27
2023-04-29T11:37:46.350Z,17.25
2023-04-29T11:40:17.595Z,17.27
2023-04-29T11:42:49.606Z,17.30
2023-04-29T11:45:21.315Z,16.98
2023-04-29T11:47:55.963Z,17.09
2023-04-29T11:50:26.338Z,17.53
2023-04-29T11:52:56.183Z,16.99
2023-04-29T11:55:25.946Z,16.83
2023-04-29T11:57:55.595Z,17.28
2023-04-29T12:00:25.334Z,17.09
2023-04-29T12:02:57.756Z,16.99
2023-04-29T12:05:29.190Z,17.08
2023-04-29T12:07:58.965Z,16.98
2023-04-29T12:10:28.733Z,17.25
2023-04-29T12:12:59.509Z,17.03
2023-04-29T12:15:29.780Z,16.79
2023-04-29T12:18:03.826Z,17.03
2023-04-29T12:20:33.942Z,16.88
2023-04-29T12:23:15.184Z,16.93
2023-04-29T12:25:45.017Z,17.07
2023-04-29T12:28:19.673Z,17.06
2023-04-29T12:30:49.967Z,17.11
2023-04-29T12:33:24.003Z,17.03
2023-04-29T12:35:54.182Z,17.11
2023-04-29T12:38:24.677Z,16.96
2023-04-29T12:40:54.313Z,17.05
2023-04-29T12:43:29.356Z,17.05
2023-04-29T12:46:05.307Z,16.95
2023-04-29T12:48:41.520Z,16.87
2023-04-29T12:51:12.774Z,16.99
2023-04-29T12:53:42.420Z,17.31
2023-04-29T12:56:14.693Z,17.24
2023-04-29T12:58:44.446Z,17.27
2023-04-29T13:01:16.589Z,17.21
2023-04-29T13:03:51.706Z,17.23
2023-04-29T13:06:21.708Z,17.11
2023-04-29T13:08:51.645Z,17.17
2023-04-29T13:11:21.314Z,16.88
2023-04-29T13:13:51.799Z,16.96
2023-04-29T13:16:21.599Z,17.01
2023-04-29T13:19:12.354Z,17.03
2023-04-29T13:21:43.613Z,17.07
2023-04-29T13:24:13.369Z,16.89
2023-04-29T13:26:43.042Z,16.90
2023-04-29T13:29:12.809Z,16.79
2023-04-29T13:31:44.157Z,16.77
2023-04-29T13:34:16.668Z,16.88
2023-04-29T13:36:46.422Z,16.84
2023-04-29T13:39:16.430Z,16.73
2023-04-29T13:41:46.690Z,16.78
2023-04-29T13:44:24.896Z,16.83
2023-04-29T13:47:01.649Z,16.91
2023-04-29T13:55:38.935Z,16.75
2023-04-29T14:00:54.552Z,16.84
2023-04-29T14:03:10.110Z,16.82
2023-04-29T14:05:42.544Z,16.74
2023-04-29T14:08:12.479Z,16.74
2023-04-29T14:10:43.574Z,16.72
2023-04-29T14:13:13.201Z,16.82
2023-04-29T14:15:42.934Z,16.79
2023-04-29T14:18:12.640Z,16.79
2023-04-29T14:20:44.957Z,16.68
2023-04-29T14:23:14.667Z,16.67
2023-04-29T14:25:44.350Z,16.65
2023-04-29T14:28:14.225Z,16.75
2023-04-29T14:30:46.120Z,16.67
2023-04-29T14:33:16.799Z,16.68
2023-04-29T14:35:49.257Z,16.64
2023-04-29T14:38:18.913Z,16.59
2023-04-29T14:40:49.063Z,16.59
2023-04-29T14:43:19.135Z,16.61
2023-04-29T14:45:48.956Z,16.64
2023-04-29T14:48:18.611Z,16.65
2023-04-29T14:50:50.893Z,16.52
2023-04-29T14:53:21.628Z,16.49
2023-04-29T14:55:52.592Z,16.50
2023-04-29T14:58:22.372Z,16.46
2023-04-29T15:00:52.232Z,16.43
2023-04-29T15:03:23.066Z,16.45
2023-04-29T15:05:55.757Z,16.53
2023-04-29T15:08:25.450Z,16.55
2023-04-29T15:10:55.636Z,16.53
2023-04-29T15:13:25.251Z,16.49
2023-04-29T15:15:55.102Z,16.43
2023-04-29T15:18:26.536Z,16.59
2023-04-29T15:20:59.435Z,16.65
2023-04-29T15:23:29.261Z,16.39
2023-04-29T15:25:59.593Z,16.45
2023-04-29T15:28:29.249Z,16.54
2023-04-29T15:31:00.014Z,16.46
2023-04-29T15:33:29.679Z,16.50
2023-04-29T15:36:03.745Z,16.51
2023-04-29T15:38:33.383Z,16.39
2023-04-29T15:41:04.659Z,16.41
2023-04-29T15:43:34.881Z,16.17
2023-04-29T15:46:04.722Z,16.25
2023-04-29T15:48:35.524Z,16.36
2023-04-29T15:51:10.366Z,16.30
2023-04-29T15:53:40.126Z,16.10
2023-04-29T15:56:09.971Z,16.31
2023-04-29T15:58:39.772Z,16.18
2023-04-29T16:01:09.445Z,15.95
2023-04-29T16:03:42.046Z,16.18
2023-04-29T16:06:14.655Z,16.18
2023-04-29T16:08:44.457Z,16.13
2023-04-29T16:11:14.076Z,16.15
2023-04-29T16:13:43.861Z,15.96
2023-04-29T16:16:13.621Z,16.06
2023-04-29T16:18:43.385Z,15.93
2023-04-29T16:21:15.648Z,16.01
2023-04-29T16:23:45.716Z,15.86
2023-04-29T16:26:15.404Z,15.88
2023-04-29T16:28:45.409Z,16.17
2023-04-29T16:31:15.838Z,16.05
2023-04-29T16:33:45.888Z,16.03
2023-04-29T16:36:18.210Z,16.19
2023-04-29T16:38:47.924Z,15.89
2023-04-29T16:41:17.764Z,16.00
2023-04-29T16:43:47.411Z,15.92
2023-04-29T16:46:17.183Z,15.80
2023-04-29T16:48:46.920Z,15.63
2023-04-29T16:51:19.892Z,15.70
2023-04-29T16:53:49.530Z,15.57
2023-04-29T16:56:19.189Z,15.53
2023-04-29T16:58:48.814Z,15.37
2023-04-29T17:01:19.909Z,15.37
2023-04-29T17:03:50.087Z,15.38
2023-04-29T17:06:22.406Z,15.68
2023-04-29T17:08:53.532Z,15.45
2023-04-29T17:11:23.192Z,15.43
2023-04-29T17:13:54.020Z,15.54
2023-04-29T17:16:23.755Z,15.35
2023-04-29T17:18:53.715Z,15.11
2023-04-29T17:21:26.169Z,14.97
2023-04-29T17:23:56.013Z,15.11
2023-04-29T17:26:25.769Z,15.37
2023-04-29T17:28:55.484Z,15.06
2023-04-29T17:31:31.021Z,15.25
2023-04-29T17:34:05.616Z,15.26
2023-04-29T17:36:37.884Z,15.10
2023-04-29T17:39:10.726Z,15.02
2023-04-29T17:41:40.388Z,14.72
2023-04-29T17:44:10.908Z,14.82
2023-04-29T17:46:43.752Z,14.75
2023-04-29T17:49:13.399Z,14.62
2023-04-29T17:51:45.960Z,14.88
2023-04-29T17:54:15.710Z,14.64
2023-04-29T17:56:45.714Z,14.58
2023-04-29T17:59:15.442Z,14.84
2023-04-29T18:01:45.356Z,14.74
2023-04-29T18:04:15.469Z,14.78
2023-04-29T18:06:47.727Z,14.48
2023-04-29T18:09:18.791Z,15.10
2023-04-29T18:11:49.006Z,14.70
2023-04-29T18:14:18.675Z,14.51
2023-04-29T18:16:48.717Z,14.86
2023-04-29T18:19:18.522Z,14.62
2023-04-29T18:21:51.200Z,14.61
2023-04-29T18:24:20.861Z,14.61
2023-04-29T18:26:50.771Z,14.71
2023-04-29T18:29:20.412Z,14.69
2023-04-29T18:31:50.122Z,14.53
2023-04-29T18:34:19.862Z,14.62
2023-04-29T18:36:52.541Z,14.62
2023-04-29T18:39:22.255Z,14.78
2023-04-29T18:41:52.034Z,14.57
2023-04-29T18:44:21.757Z,14.72
2023-04-29T18:46:51.435Z,14.54
2023-04-29T18:49:21.367Z,14.39
2023-04-29T18:51:53.608Z,14.06
2023-04-29T18:54:23.305Z,13.91
2023-04-29T18:56:53.128Z,14.39
2023-04-29T18:59:22.794Z,13.99
2023-04-29T19:01:52.698Z,13.98
2023-04-29T19:04:22.710Z,14.10
2023-04-29T19:06:55.017Z,14.06
2023-04-29T19:09:24.807Z,14.19
2023-04-29T19:11:54.464Z,14.21
2023-04-29T19:14:24.108Z,14.00
2023-04-29T19:16:54.973Z,14.15
2023-04-29T19:19:24.857Z,14.08
2023-04-29T19:21:57.103Z,13.70
2023-04-29T19:24:28.795Z,13.85
2023-04-29T19:26:58.825Z,14.06
2023-04-29T19:29:28.546Z,14.20
2023-04-29T19:31:58.310Z,13.84
2023-04-29T19:34:28.107Z,13.91
2023-04-29T19:37:01.300Z,13.80
2023-04-29T19:39:31.078Z,13.63
2023-04-29T19:42:00.904Z,13.84
2023-04-29T19:44:31.023Z,13.70
2023-04-29T19:47:00.936Z,13.83
2023-04-29T19:49:31.132Z,13.77
2023-04-29T19:52:03.814Z,13.51
2023-04-29T19:54:34.864Z,13.86
2023-04-29T19:57:05.875Z,13.72
2023-04-29T19:59:35.678Z,13.56
2023-04-29T20:02:05.559Z,13.51
2023-04-29T20:04:35.262Z,13.55
2023-04-29T20:07:07.537Z,13.83
2023-04-29T20:09:37.452Z,13.69
2023-04-29T20:12:07.312Z,13.57
2023-04-29T20:14:36.978Z,13.53
2023-04-29T20:17:06.669Z,13.34
2023-04-29T20:19:36.482Z,13.60
2023-04-29T20:22:08.740Z,13.45
2023-04-29T20:24:38.468Z,13.59
2023-04-29T20:27:08.124Z,13.56
2023-04-29T20:29:38.060Z,13.42
2023-04-29T20:32:08.213Z,13.16
2023-04-29T20:34:37.998Z,13.06
2023-04-29T20:37:10.252Z,13.12
2023-04-29T20:39:39.936Z,13.04
2023-04-29T20:42:09.574Z,13.42
2023-04-29T20:44:39.829Z,13.46
2023-04-29T20:47:10.648Z,13.25
2023-04-29T20:49:40.388Z,13.40
2023-04-29T20:52:12.685Z,13.57
2023-04-29T20:54:42.317Z,13.24
2023-04-29T20:57:12.027Z,13.29
2023-04-29T20:59:41.809Z,13.13
2023-04-29T21:02:11.467Z,13.32
2023-04-29T21:04:43.937Z,13.36
2023-04-29T21:07:16.218Z,13.14
2023-04-29T21:09:46.196Z,13.17
2023-04-29T21:12:16.139Z,13.43
2023-04-29T21:14:45.757Z,13.31
2023-04-29T21:17:16.522Z,13.51
2023-04-29T21:19:46.193Z,13.35
2023-04-29T21:22:18.519Z,13.37
2023-04-29T21:24:48.163Z,12.98
2023-04-29T21:27:17.940Z,13.23
2023-04-29T21:29:47.581Z,13.25
2023-04-29T21:32:21.831Z,13.26
2023-04-29T21:34:51.735Z,13.27
2023-04-29T21:37:24.754Z,13.35
2023-04-29T21:39:57.580Z,12.93
2023-04-29T21:42:28.291Z,13.02
2023-04-29T21:45:00.279Z,13.31
2023-04-29T21:47:33.496Z,13.18
2023-04-29T21:50:03.578Z,12.92
2023-04-29T21:52:36.209Z,13.13
2023-04-29T21:55:06.661Z,13.32
2023-04-29T21:57:44.148Z,13.43
2023-04-29T22:00:33.954Z,13.23
2023-04-29T22:03:04.459Z,13.17
2023-04-29T22:05:34.691Z,13.36
2023-04-29T22:08:07.906Z,13.13
2023-04-29T22:10:40.243Z,13.03
2023-04-29T22:13:10.669Z,13.11
2023-04-29T22:15:40.606Z,13.04
2023-04-29T22:18:10.338Z,12.92
2023-04-29T22:20:39.971Z,13.08
2023-04-29T22:23:12.584Z,12.67
2023-04-29T22:25:42.242Z,12.91
2023-04-29T22:28:11.943Z,12.92
2023-04-29T22:30:43.088Z,13.12
2023-04-29T22:33:13.292Z,13.01
2023-04-29T22:35:42.974Z,13.07
2023-04-29T22:38:15.496Z,12.98
2023-04-29T22:40:46.364Z,13.13
2023-04-29T22:43:17.042Z,13.22
2023-04-29T22:45:53.387Z,13.00
2023-04-29T22:48:25.119Z,12.99
2023-04-29T22:50:57.325Z,13.19
2023-04-29T22:53:29.813Z,13.26
2023-04-29T22:56:03.305Z,13.22
2023-04-29T22:58:33.855Z,13.25
2023-04-29T23:01:05.326Z,13.18
2023-04-29T23:03:34.994Z,13.14
2023-04-29T23:06:04.917Z,13.11
2023-04-29T23:08:37.202Z,13.13
2023-04-29T23:11:07.021Z,13.12
2023-04-29T23:13:36.673Z,12.99
2023-04-29T23:16:07.970Z,12.97
2023-04-29T23:18:39.187Z,13.09
2023-04-29T23:21:08.987Z,13.10
2023-04-29T23:23:41.312Z,12.97
2023-04-29T23:26:11.105Z,13.05
2023-04-29T23:28:40.854Z,12.99
2023-04-29T23:31:10.596Z,12.91
2023-04-29T23:33:40.290Z,12.91
2023-04-29T23:36:10.129Z,12.90
2023-04-29T23:38:42.474Z,12.67
2023-04-29T23:41:12.274Z,12.64
2023-04-29T23:43:41.981Z,12.85
2023-04-29T23:46:11.873Z,12.72
2023-04-29T23:48:41.513Z,12.84
2023-04-29T23:51:11.197Z,12.75
2023-04-29T23:53:43.426Z,12.73
2023-04-29T23:56:13.190Z,12.75
2023-04-29T23:58:42.971Z,12.84
